Time;durP1;ratioP1;P1;durP2;ratioP2;P2;SDS_P1;SDS_P2;PMS_P1;PMS_P2;Temp;Humidity;BMP_temperature;BMP_pressure;BME280_temperature;BME280_humidity;BME280_pressure;Samples;Min_cycle;Max_cycle;Signal;HPM_P1;HPM_P2
2023/04/25 00:00:16;;;;;;;14.77;12.73;;;;;;;;;;5049040;28;20227;-88
2023/04/25 00:02:44;;;;;;;14.57;13.07;;;;;;;;;;5044681;28;20204;-88
2023/04/25 00:05:11;;;;;;;15.80;12.80;;;;;;;;;;5048741;28;20262;-88
2023/04/25 00:07:39;;;;;;;13.17;11.70;;;;;;;;;;5040346;28;20198;-88
2023/04/25 00:10:07;;;;;;;14.30;12.80;;;;;;;;;;5051889;28;20207;-88
2023/04/25 00:12:35;;;;;;;16.33;13.73;;;;;;;;;;5045789;28;20287;-89
2023/04/25 00:15:04;;;;;;;15.43;13.83;;;;;;;;;;5053217;28;20250;-88
2023/04/25 00:17:32;;;;;;;15.33;13.73;;;;;;;;;;5044838;28;20263;-88
2023/04/25 00:19:59;;;;;;;13.93;11.80;;;;;;;;;;5046390;28;20222;-88
2023/04/25 00:22:27;;;;;;;14.80;12.50;;;;;;;;;;5057212;28;20233;-88
2023/04/25 00:24:57;;;;;;;11.87;10.77;;;;;;;;;;5053270;28;20215;-88
2023/04/25 00:27:24;;;;;;;12.30;11.03;;;;;;;;;;5054338;28;20204;-88
2023/04/25 00:29:51;;;;;;;11.50;10.50;;;;;;;;;;5049014;28;20208;-88
2023/04/25 00:32:20;;;;;;;14.00;11.60;;;;;;;;;;5047180;28;20233;-88
2023/04/25 00:34:47;;;;;;;12.37;11.03;;;;;;;;;;5049955;28;20231;-88
2023/04/25 00:37:15;;;;;;;12.20;11.00;;;;;;;;;;5050618;28;20203;-88
2023/04/25 00:39:42;;;;;;;9.67;8.77;;;;;;;;;;5054086;28;20294;-88
2023/04/25 00:42:10;;;;;;;10.87;9.77;;;;;;;;;;5052325;28;20199;-88
2023/04/25 00:44:37;;;;;;;9.93;8.93;;;;;;;;;;5052641;28;20204;-89
2023/04/25 00:47:05;;;;;;;11.00;10.00;;;;;;;;;;5051622;28;20211;-88
2023/04/25 00:49:34;;;;;;;12.60;11.30;;;;;;;;;;5050228;28;20192;-89
2023/04/25 00:52:02;;;;;;;13.27;12.03;;;;;;;;;;5043611;28;20208;-88
2023/04/25 00:54:30;;;;;;;12.90;11.60;;;;;;;;;;5043306;28;20211;-89
2023/04/25 00:56:57;;;;;;;11.63;10.57;;;;;;;;;;5047728;28;20203;-88
2023/04/25 00:59:25;;;;;;;15.27;13.13;;;;;;;;;;5047086;28;20206;-88
2023/04/25 01:01:52;;;;;;;12.10;10.97;;;;;;;;;;5053277;28;20203;-91
2023/04/25 01:04:21;;;;;;;15.67;14.00;;;;;;;;;;5041023;28;20296;-88
2023/04/25 01:06:50;;;;;;;13.83;12.27;;;;;;;;;;5050749;28;20206;-88
2023/04/25 01:09:17;;;;;;;12.23;11.07;;;;;;;;;;5054892;28;20194;-88
2023/04/25 01:11:45;;;;;;;18.47;15.03;;;;;;;;;;5054177;28;20378;-87
2023/04/25 01:14:12;;;;;;;13.83;12.40;;;;;;;;;;5052815;28;20215;-88
2023/04/25 01:16:41;;;;;;;14.77;12.93;;;;;;;;;;5049410;28;20216;-89
2023/04/25 01:19:11;;;;;;;13.70;12.20;;;;;;;;;;5052162;28;20286;-88
2023/04/25 01:21:40;;;;;;;11.97;10.77;;;;;;;;;;5048641;28;20295;-88
2023/04/25 01:24:08;;;;;;;10.27;9.27;;;;;;;;;;5054541;28;20199;-88
2023/04/25 01:26:36;;;;;;;10.57;9.57;;;;;;;;;;5050369;28;20299;-88
2023/04/25 01:29:03;;;;;;;11.00;10.00;;;;;;;;;;5049569;28;20288;-88
2023/04/25 01:31:31;;;;;;;10.27;9.27;;;;;;;;;;5051547;28;20231;-88
2023/04/25 01:33:59;;;;;;;9.40;8.50;;;;;;;;;;5049323;28;20204;-88
2023/04/25 01:36:26;;;;;;;9.10;8.27;;;;;;;;;;5051272;28;20207;-88
2023/04/25 01:38:55;;;;;;;9.43;8.60;;;;;;;;;;5042073;28;20250;-88
2023/04/25 01:41:23;;;;;;;8.83;8.03;;;;;;;;;;5051905;28;20220;-88
2023/04/25 01:43:51;;;;;;;8.57;7.87;;;;;;;;;;5048699;28;20207;-88
2023/04/25 01:46:18;;;;;;;9.20;8.40;;;;;;;;;;5053361;28;20210;-88
2023/04/25 01:48:45;;;;;;;8.70;7.87;;;;;;;;;;5047012;28;20207;-88
2023/04/25 01:51:13;;;;;;;8.77;7.97;;;;;;;;;;5053534;28;20215;-88
2023/04/25 01:53:40;;;;;;;8.33;7.60;;;;;;;;;;5053497;28;20192;-89
2023/04/25 01:56:10;;;;;;;8.77;7.97;;;;;;;;;;5045481;28;20232;-88
2023/04/25 01:58:37;;;;;;;8.70;7.90;;;;;;;;;;5042747;28;20230;-88
2023/04/25 02:01:05;;;;;;;8.77;8.00;;;;;;;;;;5045114;28;20201;-88
2023/04/25 02:03:33;;;;;;;8.03;7.33;;;;;;;;;;5047004;28;20206;-88
2023/04/25 02:06:00;;;;;;;8.60;7.80;;;;;;;;;;5052071;28;20317;-88
2023/04/25 02:08:27;;;;;;;8.47;7.67;;;;;;;;;;5048395;28;20200;-88
2023/04/25 02:10:55;;;;;;;8.20;7.50;;;;;;;;;;5044775;28;20207;-88
2023/04/25 02:13:23;;;;;;;9.30;8.40;;;;;;;;;;5052408;28;20207;-88
2023/04/25 02:15:51;;;;;;;11.13;10.03;;;;;;;;;;5037827;28;20231;-88
2023/04/25 02:18:19;;;;;;;10.50;9.50;;;;;;;;;;5048439;28;20210;-89
2023/04/25 02:20:47;;;;;;;9.87;8.93;;;;;;;;;;5051106;28;20228;-88
2023/04/25 02:23:15;;;;;;;9.77;8.87;;;;;;;;;;5052159;28;20208;-88
2023/04/25 02:25:42;;;;;;;10.17;9.27;;;;;;;;;;5053233;28;20207;-88
2023/04/25 02:28:10;;;;;;;11.53;10.33;;;;;;;;;;5049666;28;20199;-88
2023/04/25 02:30:39;;;;;;;10.77;9.67;;;;;;;;;;5048428;28;20289;-89
2023/04/25 02:33:06;;;;;;;10.57;9.03;;;;;;;;;;5045904;28;20298;-88
2023/04/25 02:35:34;;;;;;;10.40;9.30;;;;;;;;;;5045069;28;20226;-88
2023/04/25 02:38:01;;;;;;;10.03;9.13;;;;;;;;;;5052557;28;20200;-88
2023/04/25 02:40:28;;;;;;;10.47;9.47;;;;;;;;;;5048019;28;20203;-89
2023/04/25 02:42:56;;;;;;;9.93;9.07;;;;;;;;;;5045535;28;20204;-88
2023/04/25 02:45:23;;;;;;;10.87;9.87;;;;;;;;;;5043267;28;20207;-88
2023/04/25 02:47:52;;;;;;;10.70;9.70;;;;;;;;;;5052964;28;20230;-88
2023/04/25 02:50:19;;;;;;;9.37;8.47;;;;;;;;;;5049934;28;20290;-88
2023/04/25 02:52:47;;;;;;;11.93;10.30;;;;;;;;;;5037850;28;20211;-88
2023/04/25 02:55:14;;;;;;;11.17;9.97;;;;;;;;;;5042596;28;20196;-88
2023/04/25 02:57:41;;;;;;;12.00;10.80;;;;;;;;;;5051139;28;20217;-88
2023/04/25 03:00:11;;;;;;;10.17;9.27;;;;;;;;;;5049048;28;20204;-88
2023/04/25 03:02:39;;;;;;;9.40;8.60;;;;;;;;;;5052389;28;20208;-88
2023/04/25 03:05:08;;;;;;;9.27;8.47;;;;;;;;;;5051957;28;20203;-88
2023/04/25 03:07:36;;;;;;;10.60;9.60;;;;;;;;;;5045614;28;20249;-88
2023/04/25 03:10:03;;;;;;;10.33;9.30;;;;;;;;;;5043851;28;20298;-88
2023/04/25 03:12:30;;;;;;;12.27;11.07;;;;;;;;;;5046561;28;20207;-88
2023/04/25 03:14:58;;;;;;;13.00;11.17;;;;;;;;;;5048463;28;20266;-89
2023/04/25 03:17:25;;;;;;;9.63;8.73;;;;;;;;;;5044284;28;20318;-88
2023/04/25 03:19:53;;;;;;;9.37;8.43;;;;;;;;;;5048033;28;20343;-88
2023/04/25 03:22:21;;;;;;;11.80;10.43;;;;;;;;;;5050590;28;20208;-88
2023/04/25 03:24:49;;;;;;;10.23;9.23;;;;;;;;;;5051507;28;20245;-88
2023/04/25 03:27:16;;;;;;;11.83;10.50;;;;;;;;;;5047126;28;20226;-88
2023/04/25 03:29:44;;;;;;;10.33;9.33;;;;;;;;;;5045363;28;20203;-88
2023/04/25 03:32:11;;;;;;;11.63;10.50;;;;;;;;;;5045146;28;20236;-89
2023/04/25 03:34:38;;;;;;;8.80;8.00;;;;;;;;;;5046115;28;20210;-88
2023/04/25 03:37:05;;;;;;;8.47;7.73;;;;;;;;;;5048099;28;20231;-88
2023/04/25 03:39:34;;;;;;;9.83;8.93;;;;;;;;;;5047168;28;20204;-88
2023/04/25 03:42:02;;;;;;;11.63;10.47;;;;;;;;;;5048906;28;20200;-88
2023/04/25 03:44:30;;;;;;;8.57;7.87;;;;;;;;;;5050370;28;20202;-88
2023/04/25 03:46:57;;;;;;;8.40;7.60;;;;;;;;;;5049483;28;20227;-88
2023/04/25 03:49:25;;;;;;;8.90;8.10;;;;;;;;;;5065229;28;20203;-88
2023/04/25 03:51:52;;;;;;;8.70;7.90;;;;;;;;;;5052344;28;20211;-88
2023/04/25 03:54:20;;;;;;;10.77;9.77;;;;;;;;;;5051954;28;20203;-88
2023/04/25 03:56:49;;;;;;;9.30;8.40;;;;;;;;;;5050939;28;20241;-88
2023/04/25 03:59:16;;;;;;;8.67;7.83;;;;;;;;;;5049161;28;20270;-89
2023/04/25 04:01:44;;;;;;;8.53;7.70;;;;;;;;;;5053541;28;20212;-87
2023/04/25 04:04:11;;;;;;;8.47;7.73;;;;;;;;;;5042031;28;20207;-88
2023/04/25 04:06:38;;;;;;;8.40;7.60;;;;;;;;;;5054013;28;20213;-88
2023/04/25 04:09:09;;;;;;;7.60;6.93;;;;;;;;;;5045272;28;20217;-88
2023/04/25 04:11:38;;;;;;;8.10;7.40;;;;;;;;;;5045340;28;20216;-88
2023/04/25 04:14:07;;;;;;;8.47;7.77;;;;;;;;;;5048017;28;20235;-89
2023/04/25 04:16:34;;;;;;;8.47;7.73;;;;;;;;;;5048844;28;20227;-89
2023/04/25 04:19:02;;;;;;;8.70;7.90;;;;;;;;;;5048365;28;20208;-88
2023/04/25 04:21:29;;;;;;;8.30;7.50;;;;;;;;;;5048713;28;20214;-88
2023/04/25 04:23:57;;;;;;;8.90;8.10;;;;;;;;;;5045506;28;20209;-89
2023/04/25 04:26:25;;;;;;;8.23;7.43;;;;;;;;;;5054642;28;20234;-88
2023/04/25 04:28:54;;;;;;;8.90;8.10;;;;;;;;;;5050799;28;20212;-88
2023/04/25 04:31:23;;;;;;;9.17;8.37;;;;;;;;;;5051311;28;20228;-88
2023/04/25 04:33:51;;;;;;;8.73;7.97;;;;;;;;;;5053969;28;20282;-88
2023/04/25 04:36:21;;;;;;;8.40;7.60;;;;;;;;;;5052604;28;20211;-88
2023/04/25 04:38:49;;;;;;;8.30;7.50;;;;;;;;;;5046487;28;20199;-88
2023/04/25 04:41:16;;;;;;;9.80;8.90;;;;;;;;;;5046500;28;20210;-88
2023/04/25 04:43:44;;;;;;;8.70;7.90;;;;;;;;;;5032251;28;20212;-88
2023/04/25 04:46:12;;;;;;;9.37;8.50;;;;;;;;;;5053641;28;20204;-88
2023/04/25 04:48:41;;;;;;;8.00;7.23;;;;;;;;;;5056123;28;20210;-88
2023/04/25 04:51:09;;;;;;;7.93;7.23;;;;;;;;;;5043945;28;20206;-88
2023/04/25 04:53:36;;;;;;;9.53;8.63;;;;;;;;;;5053015;28;20207;-87
2023/04/25 04:56:03;;;;;;;7.97;7.20;;;;;;;;;;5046413;28;20264;-87
2023/04/25 04:58:30;;;;;;;11.27;9.97;;;;;;;;;;5043497;28;20200;-87
2023/04/25 05:00:58;;;;;;;9.37;8.47;;;;;;;;;;5049815;28;20211;-93
2023/04/25 05:03:26;;;;;;;10.27;9.27;;;;;;;;;;5047513;28;20278;-88
2023/04/25 05:05:56;;;;;;;9.30;8.40;;;;;;;;;;5052851;28;20238;-89
2023/04/25 05:08:23;;;;;;;9.57;8.60;;;;;;;;;;5046391;28;20208;-89
2023/04/25 05:10:50;;;;;;;11.20;10.17;;;;;;;;;;5043772;28;20199;-88
2023/04/25 05:13:18;;;;;;;12.03;10.93;;;;;;;;;;5044085;28;20208;-90
2023/04/25 05:15:45;;;;;;;10.63;9.63;;;;;;;;;;5050110;28;20198;-89
2023/04/25 05:18:13;;;;;;;11.60;10.47;;;;;;;;;;5043959;28;20234;-89
2023/04/25 05:20:40;;;;;;;12.20;11.00;;;;;;;;;;5046242;28;20219;-89
2023/04/25 05:23:09;;;;;;;11.03;9.90;;;;;;;;;;5048381;28;20206;-89
2023/04/25 05:25:36;;;;;;;12.70;11.43;;;;;;;;;;5039307;28;20279;-88
2023/04/25 05:28:04;;;;;;;10.17;9.17;;;;;;;;;;5043895;28;20247;-89
2023/04/25 05:30:32;;;;;;;11.67;10.57;;;;;;;;;;5041639;28;20243;-88
2023/04/25 05:33:00;;;;;;;10.80;9.70;;;;;;;;;;5041183;28;20231;-89
2023/04/25 05:35:27;;;;;;;10.27;9.37;;;;;;;;;;5042744;28;20204;-88
2023/04/25 05:37:55;;;;;;;10.20;9.20;;;;;;;;;;5043423;28;20307;-88
2023/04/25 05:40:24;;;;;;;10.60;9.67;;;;;;;;;;5045386;28;20249;-88
2023/04/25 05:42:51;;;;;;;10.97;9.87;;;;;;;;;;5045674;28;20200;-89
2023/04/25 05:45:19;;;;;;;11.73;10.63;;;;;;;;;;5045459;28;20267;-88
2023/04/25 05:47:46;;;;;;;10.43;9.43;;;;;;;;;;5042380;28;20204;-89
2023/04/25 05:50:14;;;;;;;10.17;9.17;;;;;;;;;;5050337;28;20203;-87
2023/04/25 05:52:41;;;;;;;11.13;10.03;;;;;;;;;;5040868;28;20204;-89
2023/04/25 05:55:09;;;;;;;11.33;10.23;;;;;;;;;;5038381;28;20204;-88
2023/04/25 05:57:41;;;;;;;11.47;10.37;;;;;;;;;;5037626;28;20314;-88
2023/04/25 06:00:09;;;;;;;10.17;9.20;;;;;;;;;;5044493;28;20211;-88
2023/04/25 06:02:36;;;;;;;8.87;8.07;;;;;;;;;;5044318;28;20217;-88
2023/04/25 06:05:04;;;;;;;10.20;9.13;;;;;;;;;;5042865;28;20208;-87
2023/04/25 06:07:31;;;;;;;10.03;8.23;;;;;;;;;;5040707;28;20204;-87
2023/04/25 06:10:00;;;;;;;9.90;8.90;;;;;;;;;;5044362;28;20214;-87
2023/04/25 06:12:28;;;;;;;9.03;8.23;;;;;;;;;;5044048;28;20218;-88
2023/04/25 06:14:57;;;;;;;10.17;9.03;;;;;;;;;;5038440;28;20254;-88
2023/04/25 06:17:24;;;;;;;9.43;8.37;;;;;;;;;;5051780;28;20283;-89
2023/04/25 06:19:51;;;;;;;11.03;7.67;;;;;;;;;;5037755;28;20208;-88
2023/04/25 06:22:19;;;;;;;8.40;6.67;;;;;;;;;;5036874;28;20299;-88
2023/04/25 06:24:47;;;;;;;9.87;6.87;;;;;;;;;;5042664;28;20199;-88
2023/04/25 06:27:14;;;;;;;9.03;6.67;;;;;;;;;;5044488;28;20203;-88
2023/04/25 06:29:42;;;;;;;9.00;7.23;;;;;;;;;;5040881;28;20265;-89
2023/04/25 06:32:11;;;;;;;11.70;6.53;;;;;;;;;;5043853;28;20239;-88
2023/04/25 06:34:38;;;;;;;8.50;6.83;;;;;;;;;;5049581;28;20210;-89
2023/04/25 06:37:06;;;;;;;10.23;6.50;;;;;;;;;;5044552;28;20219;-88
2023/04/25 06:39:33;;;;;;;9.80;6.20;;;;;;;;;;5045848;28;20211;-89
2023/04/25 06:42:00;;;;;;;11.33;7.27;;;;;;;;;;5042232;28;20305;-88
2023/04/25 06:44:29;;;;;;;9.53;6.77;;;;;;;;;;5046314;28;20287;-88
2023/04/25 06:46:56;;;;;;;9.00;6.77;;;;;;;;;;5048580;28;20356;-89
2023/04/25 06:49:25;;;;;;;8.63;6.37;;;;;;;;;;5043969;28;20206;-89
2023/04/25 06:51:52;;;;;;;9.47;6.27;;;;;;;;;;5062997;28;20207;-88
2023/04/25 06:54:20;;;;;;;9.60;6.03;;;;;;;;;;5045304;28;20225;-88
2023/04/25 06:56:47;;;;;;;6.87;5.63;;;;;;;;;;5043749;28;20227;-88
2023/04/25 06:59:15;;;;;;;7.27;5.30;;;;;;;;;;5045744;28;20202;-87
2023/04/25 07:01:42;;;;;;;7.47;5.07;;;;;;;;;;5033467;28;20196;-88
2023/04/25 07:04:09;;;;;;;6.20;4.63;;;;;;;;;;5047603;28;20278;-88
2023/04/25 07:06:42;;;;;;;6.13;4.60;;;;;;;;;;5041015;28;20206;-88
2023/04/25 07:09:09;;;;;;;8.10;4.80;;;;;;;;;;5048182;28;20253;-88
2023/04/25 07:11:37;;;;;;;8.80;5.00;;;;;;;;;;5048610;28;20226;-88
2023/04/25 07:14:04;;;;;;;7.67;4.90;;;;;;;;;;5047941;28;20207;-88
2023/04/25 07:16:31;;;;;;;7.53;4.73;;;;;;;;;;5049430;28;20200;-88
2023/04/25 07:18:59;;;;;;;7.10;4.63;;;;;;;;;;5040512;28;20196;-88
2023/04/25 07:21:26;;;;;;;13.93;4.93;;;;;;;;;;5048272;28;20195;-88
2023/04/25 07:23:55;;;;;;;6.47;4.00;;;;;;;;;;5049739;28;20211;-88
2023/04/25 07:26:22;;;;;;;8.23;4.73;;;;;;;;;;5046195;28;20213;-88
2023/04/25 07:28:51;;;;;;;8.60;5.10;;;;;;;;;;5046823;28;20239;-88
2023/04/25 07:31:18;;;;;;;7.47;4.93;;;;;;;;;;5044524;28;20251;-87
2023/04/25 07:33:45;;;;;;;7.87;4.73;;;;;;;;;;5038975;28;20219;-88
2023/04/25 07:36:15;;;;;;;6.47;4.63;;;;;;;;;;5047970;28;20204;-88
2023/04/25 07:38:42;;;;;;;8.53;4.80;;;;;;;;;;5036390;28;20291;-88
2023/04/25 07:41:11;;;;;;;7.93;4.63;;;;;;;;;;5046079;28;20253;-87
2023/04/25 07:43:38;;;;;;;7.33;4.37;;;;;;;;;;5044475;28;20253;-87
2023/04/25 07:46:06;;;;;;;5.50;3.90;;;;;;;;;;5049797;28;20245;-88
2023/04/25 07:48:33;;;;;;;6.83;4.43;;;;;;;;;;5041233;28;20203;-88
2023/04/25 07:51:00;;;;;;;7.20;4.13;;;;;;;;;;5044578;28;20212;-88
2023/04/25 07:53:28;;;;;;;8.27;4.37;;;;;;;;;;5043296;28;20286;-88
2023/04/25 07:55:55;;;;;;;8.27;4.70;;;;;;;;;;5042405;28;20210;-88
2023/04/25 07:58:24;;;;;;;7.07;4.20;;;;;;;;;;5044937;28;20234;-88
2023/04/25 08:00:51;;;;;;;6.87;4.23;;;;;;;;;;5034081;28;20215;-88
2023/04/25 08:03:19;;;;;;;6.63;4.53;;;;;;;;;;5036532;28;20214;-88
2023/04/25 08:05:47;;;;;;;7.70;4.50;;;;;;;;;;5038598;28;20250;-88
2023/04/25 08:08:14;;;;;;;5.50;3.63;;;;;;;;;;5051802;28;20386;-88
2023/04/25 08:10:42;;;;;;;4.57;4.07;;;;;;;;;;5047963;28;20203;-88
2023/04/25 08:13:10;;;;;;;5.23;4.00;;;;;;;;;;5044562;28;20282;-87
2023/04/25 08:15:39;;;;;;;5.03;4.00;;;;;;;;;;5045166;28;20203;-88
2023/04/25 08:18:06;;;;;;;5.60;4.20;;;;;;;;;;5044457;28;20230;-88
2023/04/25 08:20:34;;;;;;;7.13;4.27;;;;;;;;;;5043345;28;20210;-88
2023/04/25 08:23:01;;;;;;;5.03;4.20;;;;;;;;;;5044138;28;20196;-88
2023/04/25 08:25:28;;;;;;;7.37;4.30;;;;;;;;;;5040987;28;20247;-88
2023/04/25 08:27:56;;;;;;;5.50;4.43;;;;;;;;;;5055684;28;20214;-88
2023/04/25 08:30:24;;;;;;;4.83;3.90;;;;;;;;;;5049962;28;20314;-88
2023/04/25 08:32:53;;;;;;;6.43;4.27;;;;;;;;;;5045067;28;20208;-88
2023/04/25 08:35:21;;;;;;;6.77;4.10;;;;;;;;;;5051695;28;20214;-88
2023/04/25 08:37:50;;;;;;;4.67;3.70;;;;;;;;;;5058676;28;20258;-87
2023/04/25 08:40:17;;;;;;;6.50;3.70;;;;;;;;;;5044298;28;20215;-88
2023/04/25 08:42:44;;;;;;;5.90;3.47;;;;;;;;;;5049714;28;20214;-88
2023/04/25 08:45:12;;;;;;;5.83;3.50;;;;;;;;;;5039907;28;20216;-87
2023/04/25 08:47:41;;;;;;;4.40;3.47;;;;;;;;;;5048026;28;20234;-88
2023/04/25 08:50:10;;;;;;;6.63;3.27;;;;;;;;;;5054173;28;20207;-88
2023/04/25 08:52:39;;;;;;;4.87;3.00;;;;;;;;;;5041148;28;20208;-88
2023/04/25 08:55:08;;;;;;;3.67;2.87;;;;;;;;;;5051081;28;20196;-88
2023/04/25 08:57:36;;;;;;;6.43;3.33;;;;;;;;;;5047332;28;20227;-88
2023/04/25 09:00:12;;;;;;;4.17;3.03;;;;;;;;;;5045798;28;20227;-88
2023/04/25 09:02:40;;;;;;;3.43;2.93;;;;;;;;;;5044311;28;20254;-88
2023/04/25 09:05:09;;;;;;;4.47;3.10;;;;;;;;;;5050666;28;20210;-87
2023/04/25 09:07:38;;;;;;;3.67;2.70;;;;;;;;;;5051954;28;20200;-88
2023/04/25 09:10:06;;;;;;;4.80;3.13;;;;;;;;;;5047769;28;20212;-88
2023/04/25 09:12:33;;;;;;;4.30;3.00;;;;;;;;;;5047275;28;20204;-87
2023/04/25 09:15:05;;;;;;;5.67;3.50;;;;;;;;;;5045166;28;20208;-87
2023/04/25 09:17:33;;;;;;;4.73;2.80;;;;;;;;;;5046618;28;20230;-87
2023/04/25 09:20:07;;;;;;;5.93;3.00;;;;;;;;;;5048334;28;20269;-88
2023/04/25 09:22:35;;;;;;;5.13;2.73;;;;;;;;;;5043332;28;20214;-87
2023/04/25 09:25:06;;;;;;;3.13;2.60;;;;;;;;;;5049012;28;20198;-88
2023/04/25 09:27:34;;;;;;;4.03;2.87;;;;;;;;;;5047823;28;20295;-87
2023/04/25 09:30:01;;;;;;;4.77;2.80;;;;;;;;;;5044200;28;20199;-88
2023/04/25 09:32:29;;;;;;;3.77;2.40;;;;;;;;;;5040097;28;20234;-88
2023/04/25 09:34:57;;;;;;;4.27;2.73;;;;;;;;;;5044599;28;20215;-87
2023/04/25 09:37:25;;;;;;;5.43;2.80;;;;;;;;;;5045029;28;20195;-88
2023/04/25 09:39:54;;;;;;;3.83;2.77;;;;;;;;;;5043169;28;20208;-88
2023/04/25 09:42:26;;;;;;;4.67;2.73;;;;;;;;;;5044850;28;20221;-87
2023/04/25 09:44:55;;;;;;;2.70;2.37;;;;;;;;;;5043006;28;20215;-87
2023/04/25 09:47:23;;;;;;;4.53;2.63;;;;;;;;;;5050418;28;20187;-88
2023/04/25 09:49:51;;;;;;;2.93;2.53;;;;;;;;;;5043133;28;20262;-88
2023/04/25 09:52:19;;;;;;;3.37;2.70;;;;;;;;;;5049188;28;20210;-87
2023/04/25 09:54:46;;;;;;;3.07;2.63;;;;;;;;;;5050354;28;20204;-87
2023/04/25 09:57:17;;;;;;;5.70;2.60;;;;;;;;;;5047863;28;20206;-88
2023/04/25 09:59:47;;;;;;;4.23;2.63;;;;;;;;;;5047939;28;20230;-88
2023/04/25 10:02:15;;;;;;;3.57;2.50;;;;;;;;;;5048495;28;20223;-88
2023/04/25 10:04:43;;;;;;;3.83;2.60;;;;;;;;;;5050288;28;20300;-88
2023/04/25 10:07:10;;;;;;;3.70;2.50;;;;;;;;;;5049000;28;20214;-87
2023/04/25 10:09:39;;;;;;;4.03;2.83;;;;;;;;;;5051098;28;20226;-87
2023/04/25 10:12:08;;;;;;;4.80;2.83;;;;;;;;;;5038919;28;20283;-88
2023/04/25 10:14:35;;;;;;;5.20;2.80;;;;;;;;;;5045941;28;20211;-88
2023/04/25 10:17:04;;;;;;;6.30;3.30;;;;;;;;;;5038040;28;20270;-88
2023/04/25 10:19:32;;;;;;;5.40;3.00;;;;;;;;;;5038624;28;20222;-88
2023/04/25 10:22:04;;;;;;;6.00;3.20;;;;;;;;;;5045623;28;20205;-90
2023/04/25 10:24:32;;;;;;;5.27;2.87;;;;;;;;;;5045661;28;20211;-89
2023/04/25 10:27:01;;;;;;;5.77;3.20;;;;;;;;;;5040926;28;20210;-88
2023/04/25 10:29:29;;;;;;;7.23;2.93;;;;;;;;;;5041558;28;20212;-88
2023/04/25 10:31:56;;;;;;;6.67;3.27;;;;;;;;;;5044147;28;20234;-88
2023/04/25 10:34:39;;;;;;;4.77;2.50;;;;;;;;;;5055615;28;20206;-88
2023/04/25 10:37:08;;;;;;;5.10;2.97;;;;;;;;;;5051041;28;20198;-88
2023/04/25 10:39:35;;;;;;;5.67;3.10;;;;;;;;;;5046804;28;20261;-88
2023/04/25 10:42:03;;;;;;;6.20;3.00;;;;;;;;;;5043831;28;20210;-87
2023/04/25 10:44:31;;;;;;;6.73;3.00;;;;;;;;;;5044565;28;20195;-88
2023/04/25 10:46:59;;;;;;;4.23;3.30;;;;;;;;;;5046672;28;20218;-88
2023/04/25 10:49:35;;;;;;;4.97;3.20;;;;;;;;;;5042279;28;20331;-88
2023/04/25 10:52:18;;;;;;;4.13;2.87;;;;;;;;;;5047532;28;20203;-88
2023/04/25 10:54:49;;;;;;;4.23;2.70;;;;;;;;;;5044721;28;20199;-89
2023/04/25 10:57:33;;;;;;;5.13;3.17;;;;;;;;;;5042612;28;20214;-88
2023/04/25 11:00:09;;;;;;;4.37;2.87;;;;;;;;;;5045445;28;20223;-89
2023/04/25 11:02:45;;;;;;;6.03;3.07;;;;;;;;;;5043505;28;20200;-89
2023/04/25 11:05:21;;;;;;;4.43;2.70;;;;;;;;;;5050002;28;20207;-88
2023/04/25 11:07:54;;;;;;;4.30;2.77;;;;;;;;;;5041799;28;20258;-88
2023/04/25 11:10:21;;;;;;;5.77;2.63;;;;;;;;;;5043152;28;20199;-89
2023/04/25 11:12:49;;;;;;;5.57;2.70;;;;;;;;;;5047677;28;20211;-88
2023/04/25 11:15:17;;;;;;;5.47;4.30;;;;;;;;;;5038842;28;20200;-88
2023/04/25 11:17:46;;;;;;;5.87;3.10;;;;;;;;;;5041073;28;20207;-88
2023/04/25 11:20:15;;;;;;;5.13;2.80;;;;;;;;;;5052290;28;20226;-88
2023/04/25 11:22:43;;;;;;;5.53;2.90;;;;;;;;;;5048032;28;20196;-88
2023/04/25 11:25:11;;;;;;;5.40;3.00;;;;;;;;;;5051087;28;20195;-88
2023/04/25 11:27:51;;;;;;;5.27;3.10;;;;;;;;;;5040737;28;20277;-88
2023/04/25 11:30:19;;;;;;;4.67;2.60;;;;;;;;;;5048798;28;20225;-88
2023/04/25 11:32:46;;;;;;;5.53;2.80;;;;;;;;;;5037530;28;20292;-88
2023/04/25 11:35:16;;;;;;;8.17;2.83;;;;;;;;;;5046502;28;20204;-88
2023/04/25 11:37:43;;;;;;;5.10;2.90;;;;;;;;;;5047302;28;20203;-88
2023/04/25 11:40:11;;;;;;;4.47;2.40;;;;;;;;;;5044714;28;20220;-88
2023/04/25 11:42:39;;;;;;;6.70;2.53;;;;;;;;;;5041040;28;20220;-88
2023/04/25 11:45:07;;;;;;;4.43;2.50;;;;;;;;;;5041369;28;20235;-89
2023/04/25 11:47:35;;;;;;;5.73;2.93;;;;;;;;;;5042903;28;20233;-88
2023/04/25 11:50:02;;;;;;;3.87;2.50;;;;;;;;;;5045453;28;20326;-88
2023/04/25 11:52:48;;;;;;;7.60;2.90;;;;;;;;;;5039488;28;20219;-88
2023/04/25 11:55:17;;;;;;;5.67;2.77;;;;;;;;;;5043158;28;20206;-88
2023/04/25 11:57:45;;;;;;;5.87;2.47;;;;;;;;;;5038996;28;20214;-88
2023/04/25 12:00:15;;;;;;;4.03;2.30;;;;;;;;;;5045737;28;20215;-88
2023/04/25 12:02:43;;;;;;;4.40;2.33;;;;;;;;;;5043818;28;20211;-89
2023/04/25 12:05:10;;;;;;;3.27;2.20;;;;;;;;;;5053692;28;20207;-88
2023/04/25 12:07:38;;;;;;;3.37;1.90;;;;;;;;;;5054359;28;20214;-88
2023/04/25 12:10:07;;;;;;;5.23;2.73;;;;;;;;;;5042606;28;20219;-90
2023/04/25 12:12:36;;;;;;;5.27;2.43;;;;;;;;;;5051490;28;20200;-89
2023/04/25 12:15:11;;;;;;;4.07;2.20;;;;;;;;;;5046350;28;20279;-88
2023/04/25 12:17:39;;;;;;;6.57;2.27;;;;;;;;;;5048380;28;20268;-88
2023/04/25 12:20:11;;;;;;;4.77;2.60;;;;;;;;;;5048758;28;20224;-88
2023/04/25 12:22:40;;;;;;;4.60;2.40;;;;;;;;;;5050744;28;20196;-88
2023/04/25 12:25:08;;;;;;;3.77;2.20;;;;;;;;;;5047743;28;20299;-88
2023/04/25 12:27:37;;;;;;;5.30;2.27;;;;;;;;;;5045890;28;20276;-87
2023/04/25 12:30:06;;;;;;;5.80;2.43;;;;;;;;;;5051101;28;20223;-87
2023/04/25 12:32:34;;;;;;;5.57;2.13;;;;;;;;;;5045209;28;20200;-88
2023/04/25 12:35:01;;;;;;;6.50;2.73;;;;;;;;;;5046515;28;20207;-88
2023/04/25 12:37:30;;;;;;;7.37;5.40;;;;;;;;;;5046623;28;20226;-87
2023/04/25 12:39:57;;;;;;;4.10;2.53;;;;;;;;;;5047170;28;20227;-87
2023/04/25 12:42:28;;;;;;;4.10;2.13;;;;;;;;;;5048055;28;20203;-88
2023/04/25 12:44:57;;;;;;;5.50;2.37;;;;;;;;;;5051691;28;20207;-87
2023/04/25 12:47:24;;;;;;;5.90;2.03;;;;;;;;;;5050145;28;20227;-88
2023/04/25 12:49:52;;;;;;;4.20;2.47;;;;;;;;;;5037790;28;20253;-87
2023/04/25 12:52:19;;;;;;;4.43;2.40;;;;;;;;;;5040515;28;20267;-87
2023/04/25 12:54:47;;;;;;;3.00;2.17;;;;;;;;;;5042905;28;20203;-87
2023/04/25 12:57:14;;;;;;;5.10;2.60;;;;;;;;;;5049932;28;20291;-87
2023/04/25 12:59:42;;;;;;;4.93;2.47;;;;;;;;;;5050169;28;20234;-88
2023/04/25 13:02:12;;;;;;;4.30;2.20;;;;;;;;;;5048424;28;20208;-88
2023/04/25 13:04:40;;;;;;;5.00;2.40;;;;;;;;;;5048477;28;20203;-89
2023/04/25 13:07:08;;;;;;;4.70;2.20;;;;;;;;;;5046269;28;20250;-88
2023/04/25 13:09:36;;;;;;;5.60;2.10;;;;;;;;;;5036834;28;20290;-88
2023/04/25 13:12:04;;;;;;;4.87;2.10;;;;;;;;;;5051446;28;20202;-87
2023/04/25 13:14:31;;;;;;;6.00;2.77;;;;;;;;;;5046676;28;20204;-87
2023/04/25 13:17:00;;;;;;;7.30;2.50;;;;;;;;;;5048147;28;20204;-87
2023/04/25 13:19:30;;;;;;;4.20;2.30;;;;;;;;;;5040243;28;20219;-88
2023/04/25 13:21:58;;;;;;;4.60;2.37;;;;;;;;;;5042139;28;20211;-87
2023/04/25 13:24:26;;;;;;;5.73;1.90;;;;;;;;;;5044916;28;20327;-87
2023/04/25 13:26:54;;;;;;;7.70;3.13;;;;;;;;;;5049645;28;20211;-87
2023/04/25 13:29:22;;;;;;;4.67;3.10;;;;;;;;;;5039593;28;20228;-88
2023/04/25 13:31:50;;;;;;;5.70;2.53;;;;;;;;;;5047387;28;20241;-87
2023/04/25 13:34:17;;;;;;;4.27;2.10;;;;;;;;;;5045248;28;20200;-86
2023/04/25 13:36:46;;;;;;;3.10;1.90;;;;;;;;;;5051968;28;20283;-87
2023/04/25 13:39:14;;;;;;;3.23;1.90;;;;;;;;;;5049326;28;20251;-87
2023/04/25 13:41:42;;;;;;;3.57;1.80;;;;;;;;;;5039612;28;20219;-87
2023/04/25 13:44:09;;;;;;;3.43;1.90;;;;;;;;;;5042355;28;20200;-87
2023/04/25 13:46:37;;;;;;;3.23;2.00;;;;;;;;;;5047874;28;20204;-85
2023/04/25 13:49:04;;;;;;;2.87;2.00;;;;;;;;;;5042057;28;20211;-87
2023/04/25 13:51:31;;;;;;;5.43;2.20;;;;;;;;;;5040559;28;20211;-87
2023/04/25 13:54:00;;;;;;;3.73;1.83;;;;;;;;;;5042297;28;20294;-87
2023/04/25 13:56:28;;;;;;;4.27;2.03;;;;;;;;;;5048509;28;20285;-85
2023/04/25 13:58:56;;;;;;;2.53;1.80;;;;;;;;;;5049108;28;20211;-88
2023/04/25 14:01:23;;;;;;;4.63;2.00;;;;;;;;;;5044498;28;20211;-86
2023/04/25 14:03:51;;;;;;;3.93;2.03;;;;;;;;;;5044088;28;20211;-86
2023/04/25 14:06:22;;;;;;;4.80;1.90;;;;;;;;;;5039884;28;20282;-92
2023/04/25 14:08:50;;;;;;;3.90;1.97;;;;;;;;;;5050284;28;20294;-87
2023/04/25 14:11:18;;;;;;;3.43;2.13;;;;;;;;;;5042937;28;20207;-88
2023/04/25 14:13:46;;;;;;;3.93;1.90;;;;;;;;;;5041051;28;20205;-88
2023/04/25 14:16:13;;;;;;;3.97;1.93;;;;;;;;;;5040931;28;20204;-87
2023/04/25 14:18:41;;;;;;;4.87;1.97;;;;;;;;;;5040568;28;20199;-87
2023/04/25 14:21:09;;;;;;;9.43;2.87;;;;;;;;;;5047415;28;20253;-88
2023/04/25 14:23:36;;;;;;;4.80;1.60;;;;;;;;;;5046807;28;20203;-88
2023/04/25 14:26:04;;;;;;;3.83;2.17;;;;;;;;;;5049098;28;20230;-88
2023/04/25 14:28:32;;;;;;;5.73;1.97;;;;;;;;;;5046306;28;20359;-88
2023/04/25 14:31:00;;;;;;;3.30;2.00;;;;;;;;;;5048650;28;20231;-87
2023/04/25 14:33:27;;;;;;;3.83;1.80;;;;;;;;;;5050899;28;20199;-87
2023/04/25 14:35:55;;;;;;;4.55;1.95;;;;;;;;;;5040664;28;20208;-88
2023/04/25 14:38:25;;;;;;;3.03;1.83;;;;;;;;;;5048077;28;20324;-86
2023/04/25 14:40:53;;;;;;;3.90;1.70;;;;;;;;;;5045102;28;20223;-87
2023/04/25 14:43:21;;;;;;;5.18;2.00;;;;;;;;;;5048732;28;20294;-87